createdAt,value
2018-04-11T00:00:52.197Z,8.77
2018-04-11T00:03:23.554Z,9.57
2018-04-11T00:05:55.789Z,12.50
2018-04-11T00:08:27.143Z,8.93
2018-04-11T00:10:58.574Z,9.53
2018-04-11T00:13:30.001Z,8.73
2018-04-11T00:16:01.432Z,8.57
2018-04-11T00:18:34.397Z,9.40
2018-04-11T00:21:05.727Z,9.50
2018-04-11T00:23:41.091Z,8.70
2018-04-11T00:26:12.562Z,10.43
2018-04-11T00:28:43.948Z,8.30
2018-04-11T00:31:15.248Z,9.07
2018-04-11T00:33:46.358Z,9.47
2018-04-11T00:36:18.469Z,9.70
2018-04-11T00:38:51.397Z,9.37
2018-04-11T00:41:22.741Z,9.53
2018-04-11T00:43:55.163Z,9.53
2018-04-11T00:46:26.672Z,10.17
2018-04-11T00:48:58.212Z,10.27
2018-04-11T00:51:29.567Z,10.10
2018-04-11T00:54:01.674Z,11.27
2018-04-11T00:56:33.064Z,10.10
2018-04-11T00:59:05.199Z,9.77
2018-04-11T01:01:36.823Z,10.23
2018-04-11T01:04:08.168Z,11.00
2018-04-11T01:06:39.510Z,11.07
2018-04-11T01:09:11.118Z,11.10
2018-04-11T01:11:43.209Z,11.40
2018-04-11T01:14:15.346Z,13.17
2018-04-11T01:16:46.788Z,12.47
2018-04-11T01:19:18.162Z,12.57
2018-04-11T01:21:49.506Z,12.37
2018-04-11T01:24:21.625Z,14.10
2018-04-11T01:26:53.386Z,13.37
2018-04-11T01:29:24.761Z,12.87
2018-04-11T01:31:56.155Z,14.30
2018-04-11T01:34:28.062Z,14.73
2018-04-11T01:36:59.438Z,15.23
2018-04-11T01:39:30.804Z,14.87
2018-04-11T01:42:02.246Z,14.83
2018-04-11T01:44:33.881Z,15.63
2018-04-11T01:47:05.435Z,15.27
2018-04-11T01:49:36.758Z,14.70
2018-04-11T01:52:08.179Z,18.53
2018-04-11T01:54:40.286Z,18.03
2018-04-11T01:57:11.781Z,17.20
2018-04-11T01:59:43.922Z,16.23
2018-04-11T02:02:15.353Z,18.67
2018-04-11T02:04:46.734Z,17.97
2018-04-11T02:07:17.801Z,19.07
2018-04-11T02:09:49.166Z,19.13
2018-04-11T02:12:20.149Z,21.43
2018-04-11T02:14:51.562Z,21.80
2018-04-11T02:17:22.950Z,23.50
2018-04-11T02:19:54.342Z,22.77
2018-04-11T02:22:26.536Z,23.47
2018-04-11T02:24:58.723Z,23.43
2018-04-11T02:27:30.241Z,24.63
2018-04-11T02:30:02.522Z,25.37
2018-04-11T02:32:34.621Z,21.93
2018-04-11T02:35:06.118Z,17.67
2018-04-11T02:37:38.981Z,17.63
2018-04-11T02:40:10.322Z,15.73
2018-04-11T02:42:41.723Z,15.17
2018-04-11T02:45:13.833Z,15.73
2018-04-11T02:47:45.216Z,14.40
2018-04-11T02:50:16.602Z,15.10
2018-04-11T02:52:47.963Z,15.03
2018-04-11T02:55:19.603Z,13.70
2018-04-11T02:57:50.956Z,14.23
2018-04-11T03:00:23.070Z,14.60
2018-04-11T03:02:54.556Z,15.57
2018-04-11T03:05:26.053Z,14.53
2018-04-11T03:07:57.496Z,13.50
2018-04-11T03:10:28.831Z,13.30
2018-04-11T03:13:00.218Z,13.23
2018-04-11T03:15:31.652Z,13.40
2018-04-11T03:18:03.000Z,13.00
2018-04-11T03:20:34.357Z,13.33
2018-04-11T03:23:05.769Z,11.63
2018-04-11T03:25:38.642Z,13.50
2018-04-11T03:28:10.764Z,12.93
2018-04-11T03:30:42.162Z,13.43
2018-04-11T03:33:13.663Z,12.47
2018-04-11T03:35:45.014Z,11.63
2018-04-11T03:38:16.404Z,11.47
2018-04-11T03:40:48.073Z,13.27
2018-04-11T03:43:20.178Z,11.93
2018-04-11T03:45:51.587Z,10.73
2018-04-11T03:48:22.695Z,11.47
2018-04-11T03:50:54.069Z,12.17
2018-04-11T03:53:26.403Z,10.60
2018-04-11T03:55:57.710Z,9.63
2018-04-11T03:58:29.130Z,9.33
2018-04-11T04:01:00.491Z,12.77
2018-04-11T04:03:31.717Z,10.40
2018-04-11T04:06:03.076Z,11.03
2018-04-11T04:08:34.490Z,9.73
2018-04-11T04:11:06.637Z,10.73
2018-04-11T04:13:54.774Z,10.93
2018-04-11T04:16:43.002Z,11.77
2018-04-11T04:19:31.901Z,11.80
2018-04-11T04:22:03.543Z,9.83
2018-04-11T04:24:34.745Z,9.67
2018-04-11T04:27:06.273Z,9.90
2018-04-11T04:29:37.581Z,11.70
2018-04-11T04:32:09.063Z,9.57
2018-04-11T04:34:43.707Z,10.27
2018-04-11T04:37:15.144Z,10.03
2018-04-11T04:39:47.229Z,9.80
2018-04-11T04:42:18.793Z,10.33
2018-04-11T04:44:50.963Z,10.67
2018-04-11T04:47:22.969Z,10.00
2018-04-11T04:49:54.151Z,9.53
2018-04-11T04:55:02.030Z,10.77
2018-04-11T04:57:33.274Z,9.13
2018-04-11T05:00:03.945Z,8.87
2018-04-11T05:02:35.094Z,9.17
2018-04-11T05:05:07.099Z,10.13
2018-04-11T05:07:38.543Z,9.57
2018-04-11T05:10:10.976Z,8.10
2018-04-11T05:12:42.306Z,8.93
2018-04-11T05:15:13.575Z,10.10
2018-04-11T05:17:44.995Z,8.83
2018-04-11T05:20:16.118Z,9.00
2018-04-11T05:22:47.634Z,9.10
2018-04-11T05:25:18.778Z,9.97
2018-04-11T05:27:50.150Z,9.10
2018-04-11T05:30:21.523Z,9.20
2018-04-11T05:32:52.881Z,9.00
2018-04-11T05:35:24.965Z,8.33
2018-04-11T05:37:57.360Z,9.03
2018-04-11T05:40:30.814Z,9.07
2018-04-11T05:43:02.176Z,7.80
2018-04-11T05:45:34.365Z,8.17
2018-04-11T05:48:05.717Z,7.90
2018-04-11T05:50:37.289Z,8.47
2018-04-11T05:53:08.955Z,10.63
2018-04-11T05:55:40.525Z,15.30
2018-04-11T05:58:12.287Z,10.83
2018-04-11T06:00:43.622Z,12.10
2018-04-11T06:03:15.016Z,10.67
2018-04-11T06:05:46.430Z,10.03
2018-04-11T06:08:17.782Z,10.97
2018-04-11T06:10:49.176Z,11.13
2018-04-11T06:13:20.951Z,12.50
2018-04-11T06:15:52.361Z,11.20
2018-04-11T06:18:23.879Z,11.80
2018-04-11T06:20:55.304Z,11.50
2018-04-11T06:23:26.789Z,11.03
2018-04-11T06:25:58.187Z,11.97
2018-04-11T06:28:31.172Z,12.57
2018-04-11T06:31:04.265Z,10.90
2018-04-11T06:33:36.433Z,12.13
2018-04-11T06:36:07.855Z,22.00
2018-04-11T06:38:39.433Z,12.53
2018-04-11T06:41:10.802Z,12.57
2018-04-11T06:43:43.152Z,10.27
2018-04-11T06:46:14.571Z,10.37
2018-04-11T06:48:46.193Z,10.23
2018-04-11T06:51:18.311Z,10.80
2018-04-11T06:53:49.882Z,13.63
2018-04-11T06:56:21.295Z,11.30
2018-04-11T06:58:54.248Z,10.60
2018-04-11T07:01:25.667Z,10.67
2018-04-11T07:03:57.087Z,11.10
2018-04-11T07:06:28.438Z,10.27
2018-04-11T07:09:00.800Z,10.63
2018-04-11T07:11:33.581Z,11.00
2018-04-11T07:14:05.003Z,9.50
2018-04-11T07:16:37.105Z,12.77
2018-04-11T07:19:08.516Z,11.27
2018-04-11T07:21:39.933Z,12.17
2018-04-11T07:24:11.342Z,10.87
2018-04-11T07:26:42.852Z,10.43
2018-04-11T07:29:14.231Z,10.03
2018-04-11T07:31:46.482Z,10.97
2018-04-11T07:34:18.371Z,11.00
2018-04-11T07:36:50.519Z,10.17
2018-04-11T07:39:22.710Z,10.90
2018-04-11T07:41:54.218Z,11.33
2018-04-11T07:44:25.854Z,11.07
2018-04-11T07:46:57.008Z,9.20
2018-04-11T07:49:28.272Z,10.37
2018-04-11T07:52:00.815Z,10.73
2018-04-11T07:54:32.318Z,13.63
2018-04-11T07:57:03.879Z,11.47
2018-04-11T08:11:18.540Z,15.60
2018-04-11T08:13:50.684Z,17.07
2018-04-11T08:16:22.236Z,14.63
2018-04-11T08:18:55.864Z,19.63
2018-04-11T08:21:27.282Z,16.70
2018-04-11T08:23:57.926Z,19.27
2018-04-11T08:26:29.056Z,18.70
2018-04-11T08:29:00.227Z,22.37
2018-04-11T08:31:32.956Z,18.97
2018-04-11T08:34:06.061Z,17.37
2018-04-11T08:36:37.496Z,17.27
2018-04-11T08:39:09.149Z,21.27
2018-04-11T08:41:40.570Z,19.37
2018-04-11T08:44:12.000Z,19.40
2018-04-11T08:46:43.884Z,20.70
2018-04-11T08:49:16.035Z,19.87
2018-04-11T08:51:47.435Z,20.57
2018-04-11T08:54:19.198Z,18.57
2018-04-11T08:56:50.663Z,22.53
2018-04-11T08:59:22.146Z,23.80
2018-04-11T09:01:53.548Z,28.83
2018-04-11T09:04:24.937Z,26.10
2018-04-11T09:06:56.439Z,28.17
2018-04-11T09:09:28.001Z,39.20
2018-04-11T09:12:01.297Z,30.77
2018-04-11T09:14:32.786Z,26.43
2018-04-11T09:17:04.224Z,30.43
2018-04-11T09:19:35.653Z,28.93
2018-04-11T09:22:08.122Z,23.10
2018-04-11T09:24:39.520Z,20.87
2018-04-11T09:27:11.000Z,23.00
2018-04-11T09:29:43.159Z,21.13
2018-04-11T09:32:14.722Z,26.87
2018-04-11T09:34:46.213Z,22.13
2018-04-11T09:37:17.661Z,49.07
2018-04-11T09:39:49.031Z,28.73
2018-04-11T09:42:21.259Z,23.93
2018-04-11T09:44:53.558Z,20.50
2018-04-11T09:47:25.726Z,19.47
2018-04-11T09:50:00.719Z,19.60
2018-04-11T09:52:33.314Z,19.60
2018-04-11T09:55:04.892Z,17.77
2018-04-11T09:57:37.035Z,21.73
2018-04-11T10:00:08.937Z,16.20
2018-04-11T10:02:40.278Z,18.37
2018-04-11T10:05:11.768Z,17.73
2018-04-11T10:07:43.724Z,19.20
2018-04-11T10:10:15.526Z,26.50
2018-04-11T10:12:47.722Z,22.13
2018-04-11T10:15:19.140Z,22.83
2018-04-11T10:17:50.597Z,27.30
2018-04-11T10:20:23.895Z,24.43
2018-04-11T10:22:55.795Z,25.43
2018-04-11T10:25:27.197Z,23.83
2018-04-11T10:27:58.751Z,29.87
2018-04-11T10:30:30.297Z,33.87
2018-04-11T10:33:01.860Z,28.17
2018-04-11T10:35:33.838Z,32.97
2018-04-11T10:38:05.505Z,31.47
2018-04-11T10:40:39.018Z,34.63
2018-04-11T10:43:11.447Z,28.37
2018-04-11T10:45:44.298Z,23.13
2018-04-11T10:48:15.751Z,23.20
2018-04-11T10:50:47.350Z,25.50
2018-04-11T10:53:19.998Z,21.80
2018-04-11T10:55:52.029Z,24.37
2018-04-11T10:58:23.513Z,24.10
2018-04-11T11:00:55.898Z,25.00
2018-04-11T11:03:27.337Z,28.37
2018-04-11T11:05:58.709Z,25.57
2018-04-11T11:08:30.987Z,27.70
2018-04-11T11:11:02.814Z,28.70
2018-04-11T11:13:36.505Z,30.17
2018-04-11T11:16:08.464Z,27.87
2018-04-11T11:18:41.969Z,27.57
2018-04-11T11:21:14.751Z,28.50
2018-04-11T11:23:46.698Z,25.87
2018-04-11T11:26:18.829Z,24.43
2018-04-11T11:28:51.747Z,23.43
2018-04-11T11:31:23.167Z,26.13
2018-04-11T11:33:54.690Z,28.53
2018-04-11T11:36:26.734Z,27.90
2018-04-11T11:38:58.654Z,32.47
2018-04-11T11:41:30.409Z,27.60
2018-04-11T11:46:38.906Z,26.10
2018-04-11T11:49:10.449Z,25.20
2018-04-11T11:51:41.822Z,23.50
2018-04-11T11:54:13.506Z,23.30
2018-04-11T11:56:45.488Z,23.40
2018-04-11T11:59:17.922Z,18.50
2018-04-11T12:01:49.347Z,22.33
2018-04-11T12:04:20.511Z,23.40
2018-04-11T12:06:53.473Z,19.70
2018-04-11T12:09:25.220Z,19.53
2018-04-11T12:11:56.760Z,21.27
2018-04-11T12:14:29.182Z,19.10
2018-04-11T12:17:00.654Z,19.40
2018-04-11T12:19:32.013Z,19.77
2018-04-11T12:22:04.377Z,17.50
2018-04-11T12:24:36.186Z,16.53
2018-04-11T12:27:08.475Z,15.17
2018-04-11T12:29:40.791Z,15.50
2018-04-11T12:32:12.234Z,15.03
2018-04-11T12:34:43.600Z,17.10
2018-04-11T12:37:15.937Z,17.53
2018-04-11T12:39:47.326Z,19.63
2018-04-11T12:42:18.935Z,15.37
2018-04-11T12:44:50.424Z,18.83
2018-04-11T12:47:21.802Z,18.83
2018-04-11T12:49:53.981Z,16.10
2018-04-11T12:52:25.658Z,17.60
2018-04-11T12:54:58.409Z,16.50
2018-04-11T12:57:29.542Z,18.53
2018-04-11T13:00:01.724Z,18.17
2018-04-11T13:02:33.246Z,20.53
2018-04-11T13:05:04.678Z,19.93
2018-04-11T13:07:36.034Z,20.93
2018-04-11T13:10:08.088Z,22.10
2018-04-11T13:12:39.486Z,22.63
2018-04-11T13:15:10.966Z,23.70
2018-04-11T13:17:42.549Z,23.83
2018-04-11T13:20:14.069Z,26.50
2018-04-11T13:22:45.535Z,24.20
2018-04-11T13:25:17.194Z,24.00
2018-04-11T13:27:49.500Z,27.60
2018-04-11T13:30:21.001Z,27.80
2018-04-11T13:32:53.157Z,25.30
2018-04-11T13:35:24.547Z,29.10
2018-04-11T13:37:56.160Z,27.20
2018-04-11T13:40:27.685Z,28.67
2018-04-11T13:42:59.200Z,29.03
2018-04-11T13:45:31.503Z,27.37
2018-04-11T13:48:03.035Z,26.93
2018-04-11T13:50:35.357Z,29.13
2018-04-11T13:53:06.487Z,26.97
2018-04-11T13:55:37.906Z,30.03
2018-04-11T13:58:09.249Z,32.43
2018-04-11T14:00:40.704Z,36.10
2018-04-11T14:03:12.099Z,33.50
2018-04-11T14:05:43.455Z,32.90
2018-04-11T14:08:14.983Z,30.27
2018-04-11T14:10:46.319Z,31.77
2018-04-11T14:13:17.551Z,31.83
2018-04-11T14:15:49.022Z,29.57
2018-04-11T14:18:21.151Z,31.20
2018-04-11T14:20:52.855Z,34.40
2018-04-11T14:23:25.108Z,30.33
2018-04-11T14:25:56.413Z,31.67
2018-04-11T14:28:27.590Z,35.20
2018-04-11T14:30:58.743Z,30.53
2018-04-11T14:33:30.243Z,32.33
2018-04-11T14:36:02.890Z,27.63
2018-04-11T14:38:34.627Z,35.30
2018-04-11T14:41:05.834Z,26.37
2018-04-11T14:43:37.233Z,25.30
2018-04-11T14:46:08.583Z,28.97
2018-04-11T14:48:39.902Z,26.67
2018-04-11T14:51:12.037Z,23.73
2018-04-11T14:53:43.514Z,25.33
2018-04-11T14:56:14.890Z,22.80
2018-04-11T14:58:47.190Z,21.03
2018-04-11T15:01:18.702Z,19.87
2018-04-11T15:03:50.176Z,18.63
2018-04-11T15:06:21.521Z,18.53
2018-04-11T15:08:52.948Z,16.93
2018-04-11T15:11:24.713Z,15.07
2018-04-11T15:13:56.398Z,18.67
2018-04-11T15:16:28.518Z,17.80
2018-04-11T15:19:00.397Z,16.83
2018-04-11T15:21:32.036Z,17.73
2018-04-11T15:24:03.542Z,16.57
2018-04-11T15:26:34.949Z,17.10
2018-04-11T15:29:06.327Z,17.73
2018-04-11T15:31:38.521Z,17.30
2018-04-11T15:34:09.930Z,18.23
2018-04-11T15:36:41.338Z,18.13
2018-04-11T15:39:13.126Z,20.77
2018-04-11T15:41:44.279Z,20.70
2018-04-11T15:44:16.057Z,18.30
2018-04-11T15:46:47.712Z,23.13
2018-04-11T15:49:19.090Z,19.40
2018-04-11T15:51:50.548Z,19.10
2018-04-11T15:54:22.076Z,20.03
2018-04-11T15:56:54.485Z,21.40
2018-04-11T15:59:25.882Z,20.00
2018-04-11T16:01:57.297Z,21.57
2018-04-11T16:04:28.841Z,20.23
2018-04-11T16:06:59.970Z,20.57
2018-04-11T16:09:31.359Z,20.43
2018-04-11T16:12:02.702Z,19.30
2018-04-11T16:14:34.185Z,19.37
2018-04-11T16:17:07.100Z,19.03
2018-04-11T16:19:38.494Z,16.93
2018-04-11T16:22:09.896Z,17.10
2018-04-11T16:24:42.091Z,21.17
2018-04-11T16:27:13.484Z,21.27
2018-04-11T16:29:46.731Z,18.23
2018-04-11T16:32:18.732Z,17.50
2018-04-11T16:34:49.911Z,17.70
2018-04-11T16:37:21.346Z,18.03
2018-04-11T16:39:53.548Z,18.00
2018-04-11T16:42:25.764Z,15.83
2018-04-11T16:44:57.120Z,15.73
2018-04-11T16:47:29.199Z,14.97
2018-04-11T16:50:01.401Z,17.90
2018-04-11T16:52:32.507Z,15.23
2018-04-11T16:55:03.970Z,16.70
2018-04-11T16:57:35.792Z,13.83
2018-04-11T17:00:08.131Z,16.17
2018-04-11T17:02:40.310Z,15.07
2018-04-11T17:05:11.779Z,15.43
2018-04-11T17:07:43.228Z,15.00
2018-04-11T17:10:14.760Z,15.47
2018-04-11T17:12:46.278Z,15.00
2018-04-11T17:15:18.353Z,15.47
2018-04-11T17:17:49.793Z,14.23
2018-04-11T17:20:20.132Z,13.57
2018-04-11T17:23:08.207Z,13.10
2018-04-11T17:25:56.469Z,16.13
2018-04-11T17:28:44.453Z,15.20
2018-04-11T17:31:23.530Z,13.63
2018-04-11T17:33:54.730Z,20.47
2018-04-11T17:36:26.868Z,14.40
2018-04-11T17:38:58.309Z,14.00
2018-04-11T17:41:30.001Z,12.10
2018-04-11T17:44:01.980Z,13.53
2018-04-11T17:46:33.748Z,13.43
2018-04-11T17:49:05.123Z,14.20
2018-04-11T17:51:36.523Z,11.07
2018-04-11T17:54:08.690Z,10.70
2018-04-11T17:56:40.099Z,8.80
2018-04-11T17:59:11.495Z,6.63
2018-04-11T18:01:42.902Z,5.37
2018-04-11T18:04:14.479Z,5.80
2018-04-11T18:06:46.139Z,5.00
2018-04-11T18:09:17.224Z,4.40
2018-04-11T18:11:48.833Z,3.50
2018-04-11T18:14:20.534Z,3.70
2018-04-11T18:16:52.198Z,4.00
2018-04-11T18:19:24.566Z,3.87
2018-04-11T18:21:56.153Z,3.50
2018-04-11T18:24:27.559Z,3.23
2018-04-11T18:26:58.984Z,4.30
2018-04-11T18:29:30.373Z,4.03
2018-04-11T18:32:01.770Z,3.53
2018-04-11T18:34:33.235Z,4.33
2018-04-11T18:37:04.613Z,5.03
2018-04-11T18:39:37.589Z,4.63
2018-04-11T18:42:09.263Z,3.47
2018-04-11T18:44:42.445Z,4.23
2018-04-11T18:47:15.379Z,4.50
2018-04-11T18:49:46.593Z,7.40
2018-04-11T18:52:17.997Z,4.80
2018-04-11T18:54:49.366Z,4.17
2018-04-11T18:57:20.757Z,4.60
2018-04-11T18:59:52.954Z,4.40
2018-04-11T19:02:24.353Z,4.20
2018-04-11T19:04:55.691Z,4.90
2018-04-11T19:07:27.404Z,5.30
2018-04-11T19:09:59.194Z,5.37
2018-04-11T19:12:30.638Z,5.70
2018-04-11T19:15:02.012Z,6.73
2018-04-11T19:17:33.160Z,7.90
2018-04-11T19:20:04.529Z,6.40
2018-04-11T19:22:35.872Z,7.27
2018-04-11T19:25:07.299Z,6.13
2018-04-11T19:27:38.852Z,6.57
2018-04-11T19:30:10.015Z,6.87
2018-04-11T19:32:42.187Z,7.30
2018-04-11T19:35:14.330Z,4.53
2018-04-11T19:37:45.909Z,5.67
2018-04-11T19:40:17.247Z,6.43
2018-04-11T19:42:48.687Z,4.83
2018-04-11T19:45:20.015Z,5.17
2018-04-11T19:47:51.405Z,4.50
2018-04-11T19:50:22.842Z,5.10
2018-04-11T19:52:54.352Z,6.60
2018-04-11T19:55:26.461Z,11.00
2018-04-11T19:57:57.678Z,7.57
2018-04-11T20:00:29.835Z,5.70
2018-04-11T20:03:01.247Z,5.80
2018-04-11T20:05:32.593Z,4.97
2018-04-11T20:08:04.435Z,6.20
2018-04-11T20:10:36.110Z,5.80
2018-04-11T20:13:07.516Z,5.10
2018-04-11T20:15:38.772Z,5.23
2018-04-11T20:18:09.905Z,5.23
2018-04-11T20:20:41.093Z,5.37
2018-04-11T20:23:12.243Z,6.07
2018-04-11T20:25:43.642Z,5.37
2018-04-11T20:28:14.754Z,5.23
2018-04-11T20:30:46.694Z,5.93
2018-04-11T20:33:18.354Z,9.20
2018-04-11T20:35:50.930Z,8.80
2018-04-11T20:38:23.629Z,6.03
2018-04-11T20:40:54.960Z,7.33
2018-04-11T20:43:26.562Z,8.37
2018-04-11T20:45:57.922Z,6.07
2018-04-11T20:48:29.287Z,5.40
2018-04-11T20:51:00.963Z,6.37
2018-04-11T20:53:32.327Z,5.03
2018-04-11T20:56:03.709Z,5.43
2018-04-11T20:58:35.832Z,5.73
2018-04-11T21:01:07.939Z,5.27
2018-04-11T21:03:39.309Z,6.30
2018-04-11T21:06:11.229Z,6.37
2018-04-11T21:08:42.664Z,5.20
2018-04-11T21:11:14.160Z,6.50
2018-04-11T21:13:46.410Z,6.67
2018-04-11T21:16:17.795Z,5.93
2018-04-11T21:18:53.349Z,6.63
2018-04-11T21:21:24.889Z,8.37
2018-04-11T21:23:58.073Z,7.10
2018-04-11T21:26:29.457Z,6.70
2018-04-11T21:29:00.943Z,7.30
2018-04-11T21:31:32.425Z,5.90
2018-04-11T21:34:04.105Z,7.60
2018-04-11T21:36:35.558Z,6.30
2018-04-11T21:39:07.391Z,7.63
2018-04-11T21:41:39.531Z,9.07
2018-04-11T21:44:10.928Z,9.90
2018-04-11T21:46:43.083Z,6.33
2018-04-11T21:49:15.349Z,7.30
2018-04-11T21:51:47.097Z,7.13
2018-04-11T21:54:18.519Z,6.90
2018-04-11T21:56:49.911Z,6.83
2018-04-11T21:59:21.578Z,6.73
2018-04-11T22:01:59.716Z,7.13
2018-04-11T22:04:31.023Z,7.83
2018-04-11T22:07:03.187Z,6.53
2018-04-11T22:09:35.366Z,6.27
2018-04-11T22:12:06.762Z,6.37
2018-04-11T22:14:38.121Z,7.87
2018-04-11T22:17:09.515Z,8.43
2018-04-11T22:19:42.046Z,8.43
2018-04-11T22:22:13.460Z,7.80
2018-04-11T22:24:44.810Z,9.57
2018-04-11T22:27:15.806Z,7.07
2018-04-11T22:29:47.240Z,6.13
2018-04-11T22:38:10.441Z,8.40
2018-04-11T22:40:41.665Z,11.67
2018-04-11T22:43:12.765Z,15.73
2018-04-11T22:45:44.910Z,16.03
2018-04-11T22:48:17.098Z,16.17
2018-04-11T22:50:48.994Z,17.60
2018-04-11T22:53:19.678Z,18.13
2018-04-11T22:55:51.597Z,18.97
2018-04-11T22:58:22.935Z,20.30
2018-04-11T23:00:54.339Z,23.80
2018-04-11T23:03:26.642Z,22.60
2018-04-11T23:05:58.154Z,23.47
2018-04-11T23:08:29.506Z,26.03
2018-04-11T23:11:00.836Z,24.13
2018-04-11T23:13:32.737Z,25.77
2018-04-11T23:16:05.368Z,28.63
2018-04-11T23:18:36.685Z,26.90
2018-04-11T23:21:08.266Z,29.57
2018-04-11T23:23:39.442Z,30.27
2018-04-11T23:35:27.518Z,30.70
2018-04-11T23:37:58.701Z,32.07
2018-04-11T23:40:30.117Z,36.03
2018-04-11T23:43:01.857Z,37.73
2018-04-11T23:45:33.520Z,35.23
2018-04-11T23:48:05.130Z,41.30
2018-04-11T23:50:36.499Z,37.30
2018-04-11T23:53:08.220Z,38.13
2018-04-11T23:55:39.600Z,41.77
2018-04-11T23:58:11.893Z,36.60
